sensor_id;sensor_type;location;lat;lon;timestamp;pressure;altitude;pressure_sealevel;temperature;humidity
73457;BME280;61691;53.072;6.582;2024-03-02T00:01:15;100029.53;;;7.74;66.01
73457;BME280;61691;53.072;6.582;2024-03-02T00:03:42;100059.84;;;7.89;66.48
73457;BME280;61691;53.072;6.582;2024-03-02T00:06:11;100044.97;;;7.78;66.67
73457;BME280;61691;53.072;6.582;2024-03-02T00:08:38;100044.00;;;7.80;66.55
73457;BME280;61691;53.072;6.582;2024-03-02T00:11:05;100051.78;;;7.81;66.81
73457;BME280;61691;53.072;6.582;2024-03-02T00:13:32;100045.38;;;7.74;67.21
73457;BME280;61691;53.072;6.582;2024-03-02T00:16:00;99996.97;;;7.45;67.03
73457;BME280;61691;53.072;6.582;2024-03-02T00:18:31;100056.34;;;7.79;67.75
73457;BME280;61691;53.072;6.582;2024-03-02T00:21:00;100054.41;;;7.81;67.40
73457;BME280;61691;53.072;6.582;2024-03-02T00:23:29;100039.66;;;7.69;67.65
73457;BME280;61691;53.072;6.582;2024-03-02T00:25:56;100049.53;;;7.76;67.84
73457;BME280;61691;53.072;6.582;2024-03-02T00:28:25;99992.53;;;7.45;67.89
73457;BME280;61691;53.072;6.582;2024-03-02T00:30:59;100046.19;;;7.74;68.23
73457;BME280;61691;53.072;6.582;2024-03-02T00:33:27;100040.91;;;7.74;68.14
73457;BME280;61691;53.072;6.582;2024-03-02T00:35:56;100023.94;;;7.58;68.03
73457;BME280;61691;53.072;6.582;2024-03-02T00:38:23;100037.31;;;7.66;68.56
73457;BME280;61691;53.072;6.582;2024-03-02T00:40:50;100038.69;;;7.70;68.38
73457;BME280;61691;53.072;6.582;2024-03-02T00:45:50;100026.47;;;7.69;68.51
73457;BME280;61691;53.072;6.582;2024-03-02T00:48:17;100036.34;;;7.76;68.46
73457;BME280;61691;53.072;6.582;2024-03-02T00:50:44;100035.50;;;7.76;68.64
73457;BME280;61691;53.072;6.582;2024-03-02T00:53:12;100042.19;;;7.80;68.50
73457;BME280;61691;53.072;6.582;2024-03-02T00:55:39;100014.81;;;7.71;68.58
73457;BME280;61691;53.072;6.582;2024-03-02T00:58:10;100030.94;;;7.88;68.37
73457;BME280;61691;53.072;6.582;2024-03-02T01:00:37;100003.16;;;7.74;68.21
73457;BME280;61691;53.072;6.582;2024-03-02T01:03:04;100026.91;;;7.93;68.52
73457;BME280;61691;53.072;6.582;2024-03-02T01:05:30;100008.31;;;7.85;68.26
73457;BME280;61691;53.072;6.582;2024-03-02T01:07:57;100025.97;;;7.94;68.23
73457;BME280;61691;53.072;6.582;2024-03-02T01:10:24;99999.69;;;7.83;68.35
73457;BME280;61691;53.072;6.582;2024-03-02T01:12:52;100005.81;;;7.93;68.47
73457;BME280;61691;53.072;6.582;2024-03-02T01:15:18;99983.47;;;7.88;68.79
73457;BME280;61691;53.072;6.582;2024-03-02T01:17:46;99984.44;;;7.96;68.33
73457;BME280;61691;53.072;6.582;2024-03-02T01:20:12;99995.09;;;8.04;68.33
73457;BME280;61691;53.072;6.582;2024-03-02T01:22:39;99981.34;;;7.91;68.71
73457;BME280;61691;53.072;6.582;2024-03-02T01:25:06;99972.78;;;7.89;68.65
73457;BME280;61691;53.072;6.582;2024-03-02T01:27:35;99994.56;;;8.10;68.48
73457;BME280;61691;53.072;6.582;2024-03-02T01:30:02;99996.25;;;8.11;68.38
73457;BME280;61691;53.072;6.582;2024-03-02T01:32:28;100002.31;;;8.12;68.21
73457;BME280;61691;53.072;6.582;2024-03-02T01:34:56;99994.84;;;8.07;68.36
73457;BME280;61691;53.072;6.582;2024-03-02T01:37:22;99988.59;;;8.08;68.77
73457;BME280;61691;53.072;6.582;2024-03-02T01:39:50;99925.97;;;7.72;68.42
73457;BME280;61691;53.072;6.582;2024-03-02T01:42:17;99983.72;;;8.13;68.01
73457;BME280;61691;53.072;6.582;2024-03-02T01:44:44;99979.00;;;8.07;68.50
73457;BME280;61691;53.072;6.582;2024-03-02T01:47:11;99949.03;;;7.89;68.22
73457;BME280;61691;53.072;6.582;2024-03-02T01:49:38;99986.34;;;8.13;68.01
73457;BME280;61691;53.072;6.582;2024-03-02T01:52:05;99977.06;;;8.09;68.17
73457;BME280;61691;53.072;6.582;2024-03-02T01:54:32;99921.78;;;7.79;68.40
73457;BME280;61691;53.072;6.582;2024-03-02T01:56:59;99981.78;;;8.15;67.95
73457;BME280;61691;53.072;6.582;2024-03-02T01:59:26;99947.06;;;7.91;68.00
73457;BME280;61691;53.072;6.582;2024-03-02T02:01:53;99970.81;;;8.10;68.07
73457;BME280;61691;53.072;6.582;2024-03-02T02:04:20;99978.44;;;8.13;68.26
73457;BME280;61691;53.072;6.582;2024-03-02T02:06:54;99974.44;;;8.09;68.52
73457;BME280;61691;53.072;6.582;2024-03-02T02:09:20;99981.78;;;8.15;68.24
73457;BME280;61691;53.072;6.582;2024-03-02T02:11:47;99950.41;;;8.03;67.96
73457;BME280;61691;53.072;6.582;2024-03-02T02:14:15;99983.44;;;8.16;68.34
73457;BME280;61691;53.072;6.582;2024-03-02T02:16:42;99968.59;;;8.15;68.21
73457;BME280;61691;53.072;6.582;2024-03-02T02:19:09;99942.06;;;8.07;68.32
73457;BME280;61691;53.072;6.582;2024-03-02T02:21:36;99940.81;;;8.02;68.22
73457;BME280;61691;53.072;6.582;2024-03-02T02:24:03;99955.38;;;8.15;68.53
73457;BME280;61691;53.072;6.582;2024-03-02T02:26:30;99963.69;;;8.21;68.49
73457;BME280;61691;53.072;6.582;2024-03-02T02:28:56;99973.59;;;8.19;68.26
73457;BME280;61691;53.072;6.582;2024-03-02T02:31:23;99944.97;;;8.04;68.36
73457;BME280;61691;53.072;6.582;2024-03-02T02:33:50;99962.59;;;8.13;68.31
73457;BME280;61691;53.072;6.582;2024-03-02T02:36:17;99977.59;;;8.23;68.53
73457;BME280;61691;53.072;6.582;2024-03-02T02:38:46;99977.19;;;8.18;68.36
73457;BME280;61691;53.072;6.582;2024-03-02T02:41:14;99949.69;;;8.01;68.62
73457;BME280;61691;53.072;6.582;2024-03-02T02:43:41;99948.44;;;8.05;68.35
73457;BME280;61691;53.072;6.582;2024-03-02T02:46:08;99950.09;;;8.06;68.33
73457;BME280;61691;53.072;6.582;2024-03-02T02:48:34;99917.34;;;7.89;68.62
73457;BME280;61691;53.072;6.582;2024-03-02T02:51:01;99975.38;;;8.28;68.63
73457;BME280;61691;53.072;6.582;2024-03-02T02:53:28;99955.38;;;8.15;68.57
73457;BME280;61691;53.072;6.582;2024-03-02T02:55:55;99966.78;;;8.26;68.92
73457;BME280;61691;53.072;6.582;2024-03-02T02:58:21;99972.88;;;8.26;68.50
73457;BME280;61691;53.072;6.582;2024-03-02T03:00:48;99966.34;;;8.30;68.55
73457;BME280;61691;53.072;6.582;2024-03-02T03:03:15;99965.38;;;8.22;68.78
73457;BME280;61691;53.072;6.582;2024-03-02T03:05:42;99976.66;;;8.33;68.77
73457;BME280;61691;53.072;6.582;2024-03-02T03:08:08;99985.13;;;8.37;68.66
73457;BME280;61691;53.072;6.582;2024-03-02T03:10:35;99964.28;;;8.34;68.55
73457;BME280;61691;53.072;6.582;2024-03-02T03:13:02;99975.53;;;8.36;68.82
73457;BME280;61691;53.072;6.582;2024-03-02T03:15:29;99955.66;;;8.32;68.67
73457;BME280;61691;53.072;6.582;2024-03-02T03:17:55;99965.94;;;8.35;68.91
73457;BME280;61691;53.072;6.582;2024-03-02T03:20:22;99959.97;;;8.33;68.79
73457;BME280;61691;53.072;6.582;2024-03-02T03:22:50;99913.00;;;8.07;68.93
73457;BME280;61691;53.072;6.582;2024-03-02T03:25:16;99958.72;;;8.37;68.66
73457;BME280;61691;53.072;6.582;2024-03-02T03:27:43;99967.19;;;8.40;68.78
73457;BME280;61691;53.072;6.582;2024-03-02T03:30:10;99967.34;;;8.39;68.58
73457;BME280;61691;53.072;6.582;2024-03-02T03:32:37;99978.59;;;8.41;68.66
73457;BME280;61691;53.072;6.582;2024-03-02T03:35:04;99957.34;;;8.33;68.89
73457;BME280;61691;53.072;6.582;2024-03-02T03:37:31;99977.06;;;8.48;68.75
73457;BME280;61691;53.072;6.582;2024-03-02T03:40:03;99927.03;;;8.18;68.59
73457;BME280;61691;53.072;6.582;2024-03-02T03:42:37;99949.53;;;8.41;68.79
73457;BME280;61691;53.072;6.582;2024-03-02T03:45:06;99976.75;;;8.51;68.78
73457;BME280;61691;53.072;6.582;2024-03-02T03:47:33;99939.53;;;8.35;68.84
73457;BME280;61691;53.072;6.582;2024-03-02T03:50:00;99960.78;;;8.43;68.71
73457;BME280;61691;53.072;6.582;2024-03-02T03:52:27;99952.03;;;8.42;68.47
73457;BME280;61691;53.072;6.582;2024-03-02T03:54:53;99936.47;;;8.30;68.65
73457;BME280;61691;53.072;6.582;2024-03-02T03:57:20;99955.38;;;8.35;68.81
73457;BME280;61691;53.072;6.582;2024-03-02T03:59:48;99962.63;;;8.33;68.99
73457;BME280;61691;53.072;6.582;2024-03-02T04:02:14;99950.63;;;8.29;69.03
73457;BME280;61691;53.072;6.582;2024-03-02T04:04:41;99954.00;;;8.31;69.02
73457;BME280;61691;53.072;6.582;2024-03-02T04:07:08;99964.56;;;8.31;69.05
73457;BME280;61691;53.072;6.582;2024-03-02T04:09:34;99950.09;;;8.15;69.24
73457;BME280;61691;53.072;6.582;2024-03-02T04:12:01;99960.09;;;8.22;69.03
73457;BME280;61691;53.072;6.582;2024-03-02T04:14:28;99976.63;;;8.24;69.58
73457;BME280;61691;53.072;6.582;2024-03-02T04:16:54;99969.81;;;8.21;69.45
73457;BME280;61691;53.072;6.582;2024-03-02T04:19:21;99979.00;;;8.27;69.46
73457;BME280;61691;53.072;6.582;2024-03-02T04:21:48;99990.97;;;8.31;69.50
73457;BME280;61691;53.072;6.582;2024-03-02T04:24:15;99969.25;;;8.27;69.46
73457;BME280;61691;53.072;6.582;2024-03-02T04:26:42;99962.03;;;8.20;69.71
73457;BME280;61691;53.072;6.582;2024-03-02T04:29:08;99974.56;;;8.37;69.36
73457;BME280;61691;53.072;6.582;2024-03-02T04:31:35;99909.44;;;7.89;69.31
73457;BME280;61691;53.072;6.582;2024-03-02T04:34:02;99967.44;;;8.28;69.21
73457;BME280;61691;53.072;6.582;2024-03-02T04:36:28;99970.09;;;8.28;69.62
73457;BME280;61691;53.072;6.582;2024-03-02T04:38:56;99976.78;;;8.32;69.44
73457;BME280;61691;53.072;6.582;2024-03-02T04:41:23;99963.44;;;8.24;69.63
73457;BME280;61691;53.072;6.582;2024-03-02T04:43:49;99988.72;;;8.36;69.85
73457;BME280;61691;53.072;6.582;2024-03-02T04:46:16;99987.06;;;8.35;69.41
73457;BME280;61691;53.072;6.582;2024-03-02T04:48:43;99987.91;;;8.35;69.63
73457;BME280;61691;53.072;6.582;2024-03-02T04:51:10;99988.19;;;8.42;69.63
73457;BME280;61691;53.072;6.582;2024-03-02T04:53:37;99979.84;;;8.37;69.62
73457;BME280;61691;53.072;6.582;2024-03-02T04:56:04;100000.41;;;8.43;69.50
73457;BME280;61691;53.072;6.582;2024-03-02T04:58:50;99991.78;;;8.22;69.44
73457;BME280;61691;53.072;6.582;2024-03-02T05:01:16;100003.03;;;8.24;69.83
73457;BME280;61691;53.072;6.582;2024-03-02T05:03:44;100005.94;;;8.21;70.00
73457;BME280;61691;53.072;6.582;2024-03-02T05:06:11;100002.19;;;8.13;69.80
73457;BME280;61691;53.072;6.582;2024-03-02T05:08:38;99963.72;;;7.92;69.83
73457;BME280;61691;53.072;6.582;2024-03-02T05:11:05;100005.94;;;8.21;70.09
73457;BME280;61691;53.072;6.582;2024-03-02T05:13:52;100029.84;;;8.29;70.00
73457;BME280;61691;53.072;6.582;2024-03-02T05:16:18;100011.22;;;8.21;70.01
73457;BME280;61691;53.072;6.582;2024-03-02T05:18:45;100006.09;;;8.09;70.28
73457;BME280;61691;53.072;6.582;2024-03-02T05:21:11;100024.28;;;8.12;70.42
73457;BME280;61691;53.072;6.582;2024-03-02T05:23:38;100030.97;;;8.16;70.41
73457;BME280;61691;53.072;6.582;2024-03-02T05:26:05;100016.78;;;8.08;70.25
73457;BME280;61691;53.072;6.582;2024-03-02T05:28:32;100029.28;;;8.15;70.30
73457;BME280;61691;53.072;6.582;2024-03-02T05:30:59;100038.19;;;8.14;70.35
73457;BME280;61691;53.072;6.582;2024-03-02T05:33:26;100025.41;;;8.00;70.40
73457;BME280;61691;53.072;6.582;2024-03-02T05:35:52;100029.03;;;8.09;70.67
73457;BME280;61691;53.072;6.582;2024-03-02T05:38:20;100040.69;;;8.16;70.80
73457;BME280;61691;53.072;6.582;2024-03-02T05:40:48;100035.41;;;8.16;70.85
73457;BME280;61691;53.072;6.582;2024-03-02T05:43:15;100039.84;;;8.15;70.95
73457;BME280;61691;53.072;6.582;2024-03-02T05:45:41;100052.09;;;8.16;70.67
73457;BME280;61691;53.072;6.582;2024-03-02T05:48:08;100055.56;;;8.17;71.12
73457;BME280;61691;53.072;6.582;2024-03-02T05:50:36;100024.28;;;7.93;70.96
73457;BME280;61691;53.072;6.582;2024-03-02T05:53:02;100054.03;;;8.14;70.93
73457;BME280;61691;53.072;6.582;2024-03-02T05:55:29;100039.56;;;7.99;71.13
73457;BME280;61691;53.072;6.582;2024-03-02T05:57:56;100069.47;;;8.19;71.11
73457;BME280;61691;53.072;6.582;2024-03-02T06:00:43;100059.31;;;8.14;71.00
73457;BME280;61691;53.072;6.582;2024-03-02T06:03:09;100072.66;;;8.23;71.15
73457;BME280;61691;53.072;6.582;2024-03-02T06:05:37;100064.03;;;8.11;70.97
73457;BME280;61691;53.072;6.582;2024-03-02T06:08:04;100083.22;;;8.23;71.59
73457;BME280;61691;53.072;6.582;2024-03-02T06:10:30;100079.88;;;8.21;71.21
73457;BME280;61691;53.072;6.582;2024-03-02T06:12:57;100041.22;;;8.00;71.14
73457;BME280;61691;53.072;6.582;2024-03-02T06:15:25;100078.19;;;8.20;71.39
73457;BME280;61691;53.072;6.582;2024-03-02T06:17:52;100048.19;;;8.01;71.40
73457;BME280;61691;53.072;6.582;2024-03-02T06:20:19;100075.97;;;8.15;71.40
73457;BME280;61691;53.072;6.582;2024-03-02T06:22:45;100089.75;;;8.19;71.33
73457;BME280;61691;53.072;6.582;2024-03-02T06:25:12;100110.31;;;8.25;71.20
73457;BME280;61691;53.072;6.582;2024-03-02T06:27:39;100084.31;;;8.10;71.41
73457;BME280;61691;53.072;6.582;2024-03-02T06:30:06;100038.44;;;7.73;71.12
73457;BME280;61691;53.072;6.582;2024-03-02T06:32:34;100098.88;;;8.05;71.12
73457;BME280;61691;53.072;6.582;2024-03-02T06:35:02;100104.72;;;8.08;71.25
73457;BME280;61691;53.072;6.582;2024-03-02T06:37:30;100105.41;;;8.01;71.20
73457;BME280;61691;53.072;6.582;2024-03-02T06:39:58;100120.28;;;8.02;71.65
73457;BME280;61691;53.072;6.582;2024-03-02T06:42:24;100108.59;;;7.95;71.26
73457;BME280;61691;53.072;6.582;2024-03-02T06:44:51;100112.34;;;7.92;71.85
73457;BME280;61691;53.072;6.582;2024-03-02T06:47:18;100090.34;;;7.82;72.03
73457;BME280;61691;53.072;6.582;2024-03-02T06:49:46;100103.28;;;7.85;71.54
73457;BME280;61691;53.072;6.582;2024-03-02T06:52:13;100123.31;;;7.97;71.93
73457;BME280;61691;53.072;6.582;2024-03-02T06:54:40;100128.16;;;7.92;71.94
73457;BME280;61691;53.072;6.582;2024-03-02T06:57:06;100094.78;;;7.72;71.73
73457;BME280;61691;53.072;6.582;2024-03-02T06:59:33;100123.03;;;7.91;71.72
73457;BME280;61691;53.072;6.582;2024-03-02T07:02:00;100131.78;;;7.91;71.89
73457;BME280;61691;53.072;6.582;2024-03-02T07:04:27;100136.78;;;7.94;71.98
73457;BME280;61691;53.072;6.582;2024-03-02T07:06:54;100075.56;;;7.51;71.76
73457;BME280;61691;53.072;6.582;2024-03-02T07:09:21;100119.78;;;7.77;72.57
73457;BME280;61691;53.072;6.582;2024-03-02T07:11:51;100152.09;;;8.00;72.42
73457;BME280;61691;53.072;6.582;2024-03-02T07:14:18;100134.53;;;7.90;72.18
73457;BME280;61691;53.072;6.582;2024-03-02T07:16:44;100142.38;;;8.01;72.20
73457;BME280;61691;53.072;6.582;2024-03-02T07:19:11;100083.78;;;7.67;72.52
73457;BME280;61691;53.072;6.582;2024-03-02T07:21:38;100132.91;;;7.98;72.36
73457;BME280;61691;53.072;6.582;2024-03-02T07:24:05;100127.63;;;7.98;72.17
73457;BME280;61691;53.072;6.582;2024-03-02T07:26:33;100146.84;;;8.20;72.31
73457;BME280;61691;53.072;6.582;2024-03-02T07:29:02;100142.41;;;8.10;72.09
73457;BME280;61691;53.072;6.582;2024-03-02T07:31:29;100137.22;;;7.99;72.20
73457;BME280;61691;53.072;6.582;2024-03-02T07:33:56;100158.63;;;8.06;72.46
73457;BME280;61691;53.072;6.582;2024-03-02T07:36:23;100137.88;;;7.92;72.35
73457;BME280;61691;53.072;6.582;2024-03-02T07:38:50;100171.28;;;8.02;72.51
73457;BME280;61691;53.072;6.582;2024-03-02T07:41:18;100161.09;;;7.98;72.52
73457;BME280;61691;53.072;6.582;2024-03-02T07:43:44;100178.47;;;8.00;72.47
73457;BME280;61691;53.072;6.582;2024-03-02T07:46:11;100171.28;;;8.02;72.56
73457;BME280;61691;53.072;6.582;2024-03-02T07:48:38;100189.63;;;8.13;72.36
73457;BME280;61691;53.072;6.582;2024-03-02T07:51:05;100174.59;;;8.04;72.66
73457;BME280;61691;53.072;6.582;2024-03-02T07:53:32;100173.09;;;8.11;72.71
73457;BME280;61691;53.072;6.582;2024-03-02T07:55:58;100155.16;;;8.05;72.73
73457;BME280;61691;53.072;6.582;2024-03-02T07:58:29;100174.63;;;8.14;72.65
73457;BME280;61691;53.072;6.582;2024-03-02T08:00:57;100159.03;;;8.01;72.72
73457;BME280;61691;53.072;6.582;2024-03-02T08:03:25;100153.19;;;7.98;72.73
73457;BME280;61691;53.072;6.582;2024-03-02T08:05:51;100180.03;;;8.12;72.63
73457;BME280;61691;53.072;6.582;2024-03-02T08:08:19;100119.91;;;7.76;72.77
73457;BME280;61691;53.072;6.582;2024-03-02T08:10:46;100205.09;;;8.28;72.76
73457;BME280;61691;53.072;6.582;2024-03-02T08:13:13;100212.78;;;8.31;72.75
73457;BME280;61691;53.072;6.582;2024-03-02T08:15:40;100179.34;;;8.10;72.55
73457;BME280;61691;53.072;6.582;2024-03-02T08:18:07;100212.78;;;8.31;72.82
73457;BME280;61691;53.072;6.582;2024-03-02T08:20:35;100191.19;;;8.26;72.63
73457;BME280;61691;53.072;6.582;2024-03-02T08:23:01;100202.78;;;8.34;72.74
73457;BME280;61691;53.072;6.582;2024-03-02T08:25:28;100228.53;;;8.51;72.42
73457;BME280;61691;53.072;6.582;2024-03-02T08:27:55;100221.19;;;8.55;72.58
73457;BME280;61691;53.072;6.582;2024-03-02T08:30:22;100190.56;;;8.43;72.43
73457;BME280;61691;53.072;6.582;2024-03-02T08:32:48;100186.09;;;8.43;72.54
73457;BME280;61691;53.072;6.582;2024-03-02T08:35:15;100179.03;;;8.53;72.68
73457;BME280;61691;53.072;6.582;2024-03-02T08:37:42;100216.75;;;8.84;72.55
73457;BME280;61691;53.072;6.582;2024-03-02T08:40:10;100239.97;;;9.10;72.39
73457;BME280;61691;53.072;6.582;2024-03-02T08:42:40;100236.63;;;9.27;72.36
73457;BME280;61691;53.072;6.582;2024-03-02T08:45:08;100221.84;;;9.44;71.20
73457;BME280;61691;53.072;6.582;2024-03-02T08:47:35;100240.06;;;9.56;71.38
73457;BME280;61691;53.072;6.582;2024-03-02T08:50:02;100202.91;;;9.48;70.79
73457;BME280;61691;53.072;6.582;2024-03-02T08:52:30;100217.91;;;9.57;70.89
73457;BME280;61691;53.072;6.582;2024-03-02T08:54:57;100243.34;;;9.78;70.56
73457;BME280;61691;53.072;6.582;2024-03-02T08:57:23;100212.03;;;9.73;70.54
73457;BME280;61691;53.072;6.582;2024-03-02T08:59:50;100238.97;;;9.96;69.99
73457;BME280;61691;53.072;6.582;2024-03-02T09:02:17;100236.88;;;9.99;70.00
73457;BME280;61691;53.072;6.582;2024-03-02T09:04:43;100190.88;;;9.63;68.15
73457;BME280;61691;53.072;6.582;2024-03-02T09:07:10;100248.00;;;10.03;68.88
73457;BME280;61691;53.072;6.582;2024-03-02T09:09:37;100244.66;;;10.01;68.26
73457;BME280;61691;53.072;6.582;2024-03-02T09:12:06;100244.09;;;10.07;69.00
73457;BME280;61691;53.072;6.582;2024-03-02T09:14:34;100255.09;;;10.22;68.44
73457;BME280;61691;53.072;6.582;2024-03-02T09:17:02;100246.81;;;10.25;68.30
73457;BME280;61691;53.072;6.582;2024-03-02T09:19:29;100227.06;;;10.19;68.41
73457;BME280;61691;53.072;6.582;2024-03-02T09:21:57;100227.59;;;10.23;67.73
73457;BME280;61691;53.072;6.582;2024-03-02T09:24:25;100240.09;;;10.30;66.83
73457;BME280;61691;53.072;6.582;2024-03-02T09:26:52;100245.84;;;10.26;66.60
73457;BME280;61691;53.072;6.582;2024-03-02T09:29:18;100212.88;;;10.01;66.44
73457;BME280;61691;53.072;6.582;2024-03-02T09:31:47;100228.22;;;10.07;66.68
73457;BME280;61691;53.072;6.582;2024-03-02T09:34:14;100215.41;;;10.02;67.27
73457;BME280;61691;53.072;6.582;2024-03-02T09:36:41;100205.03;;;10.09;66.87
73457;BME280;61691;53.072;6.582;2024-03-02T09:39:08;100243.91;;;10.28;66.40
73457;BME280;61691;53.072;6.582;2024-03-02T09:41:37;100251.16;;;10.26;65.87
73457;BME280;61691;53.072;6.582;2024-03-02T09:44:04;100247.06;;;10.31;66.07
73457;BME280;61691;53.072;6.582;2024-03-02T09:46:31;100246.31;;;10.21;66.34
73457;BME280;61691;53.072;6.582;2024-03-02T09:48:58;100243.19;;;10.26;65.57
73457;BME280;61691;53.072;6.582;2024-03-02T09:51:25;100246.09;;;10.32;66.01
73457;BME280;61691;53.072;6.582;2024-03-02T09:53:54;100258.50;;;10.32;65.51
73457;BME280;61691;53.072;6.582;2024-03-02T09:56:28;100233.44;;;10.26;64.94
73457;BME280;61691;53.072;6.582;2024-03-02T09:58:55;100253.44;;;10.38;65.19
73457;BME280;61691;53.072;6.582;2024-03-02T10:01:22;100244.66;;;10.38;65.61
73457;BME280;61691;53.072;6.582;2024-03-02T10:03:49;100238.56;;;10.37;64.98
73457;BME280;61691;53.072;6.582;2024-03-02T10:08:45;100237.25;;;10.41;65.12
73457;BME280;61691;53.072;6.582;2024-03-02T10:11:25;100268.38;;;10.67;65.18
73457;BME280;61691;53.072;6.582;2024-03-02T10:16:36;100237.03;;;10.80;64.91
73457;BME280;61691;53.072;6.582;2024-03-02T10:19:23;100258.84;;;11.09;64.47
73457;BME280;61691;53.072;6.582;2024-03-02T10:21:52;100210.94;;;10.93;64.48
73457;BME280;61691;53.072;6.582;2024-03-02T10:24:21;100247.41;;;11.09;63.78
73457;BME280;61691;53.072;6.582;2024-03-02T10:26:48;100225.19;;;10.92;63.71
73457;BME280;61691;53.072;6.582;2024-03-02T10:29:15;100248.53;;;11.06;63.61
73457;BME280;61691;53.072;6.582;2024-03-02T10:31:46;100257.78;;;11.02;63.26
73457;BME280;61691;53.072;6.582;2024-03-02T10:34:13;100190.34;;;10.52;62.96
73457;BME280;61691;53.072;6.582;2024-03-02T10:36:41;100243.38;;;10.87;63.12
73457;BME280;61691;53.072;6.582;2024-03-02T10:39:09;100221.16;;;10.70;63.44
73457;BME280;61691;53.072;6.582;2024-03-02T10:41:37;100242.00;;;10.83;63.21
73457;BME280;61691;53.072;6.582;2024-03-02T10:44:06;100215.34;;;10.67;63.50
73457;BME280;61691;53.072;6.582;2024-03-02T10:46:34;100230.09;;;10.69;63.05
73457;BME280;61691;53.072;6.582;2024-03-02T10:49:03;100241.13;;;10.74;63.26
73457;BME280;61691;53.072;6.582;2024-03-02T10:51:34;100195.69;;;10.42;63.44
73457;BME280;61691;53.072;6.582;2024-03-02T10:54:04;100241.34;;;10.81;64.01
73457;BME280;61691;53.072;6.582;2024-03-02T10:56:34;100243.69;;;10.84;63.64
73457;BME280;61691;53.072;6.582;2024-03-02T11:01:39;100239.16;;;10.94;63.55
73457;BME280;61691;53.072;6.582;2024-03-02T11:04:08;100233.53;;;10.97;63.55
73457;BME280;61691;53.072;6.582;2024-03-02T11:06:36;100241.13;;;11.10;63.26
73457;BME280;61691;53.072;6.582;2024-03-02T11:09:07;100237.00;;;11.15;62.79
73457;BME280;61691;53.072;6.582;2024-03-02T11:11:40;100245.03;;;11.23;62.87
73457;BME280;61691;53.072;6.582;2024-03-02T11:14:14;100202.38;;;10.99;62.71
73457;BME280;61691;53.072;6.582;2024-03-02T11:16:43;100243.75;;;11.28;62.59
73457;BME280;61691;53.072;6.582;2024-03-02T11:19:12;100241.41;;;11.24;61.38
73457;BME280;61691;53.072;6.582;2024-03-02T11:21:43;100220.66;;;11.02;60.78
73457;BME280;61691;53.072;6.582;2024-03-02T11:26:51;100237.69;;;11.17;60.39
73457;BME280;61691;53.072;6.582;2024-03-02T11:32:04;100252.63;;;11.18;59.92
73457;BME280;61691;53.072;6.582;2024-03-02T11:34:36;100247.63;;;11.15;59.68
73457;BME280;61691;53.072;6.582;2024-03-02T11:37:05;100251.66;;;11.19;60.39
73457;BME280;61691;53.072;6.582;2024-03-02T11:39:34;100227.78;;;11.19;59.90
73457;BME280;61691;53.072;6.582;2024-03-02T11:42:00;100208.31;;;11.11;59.66
73457;BME280;61691;53.072;6.582;2024-03-02T11:44:27;100247.81;;;11.40;59.25
73457;BME280;61691;53.072;6.582;2024-03-02T11:46:58;100220.09;;;11.34;58.81
73457;BME280;61691;53.072;6.582;2024-03-02T11:49:51;100228.97;;;11.51;59.19
73457;BME280;61691;53.072;6.582;2024-03-02T11:52:18;100217.81;;;11.65;59.32
73457;BME280;61691;53.072;6.582;2024-03-02T11:54:46;100211.16;;;11.61;57.87
73457;BME280;61691;53.072;6.582;2024-03-02T11:57:18;100212.25;;;11.76;58.29
73457;BME280;61691;53.072;6.582;2024-03-02T11:59:47;100210.44;;;11.77;58.60
73457;BME280;61691;53.072;6.582;2024-03-02T12:02:18;100220.44;;;11.83;57.44
73457;BME280;61691;53.072;6.582;2024-03-02T12:04:46;100191.16;;;11.75;58.29
73457;BME280;61691;53.072;6.582;2024-03-02T12:07:22;100214.28;;;11.82;58.14
73457;BME280;61691;53.072;6.582;2024-03-02T12:10:00;100212.00;;;11.87;58.11
73457;BME280;61691;53.072;6.582;2024-03-02T12:12:30;100211.63;;;11.82;58.20
73457;BME280;61691;53.072;6.582;2024-03-02T12:14:56;100215.84;;;11.93;58.05
73457;BME280;61691;53.072;6.582;2024-03-02T12:17:23;100225.00;;;11.98;58.27
73457;BME280;61691;53.072;6.582;2024-03-02T12:19:50;100199.72;;;11.86;58.01
73457;BME280;61691;53.072;6.582;2024-03-02T12:22:17;100202.03;;;11.89;56.59
73457;BME280;61691;53.072;6.582;2024-03-02T12:24:44;100222.50;;;11.97;56.71
73457;BME280;61691;53.072;6.582;2024-03-02T12:27:15;100223.84;;;12.01;56.24
73457;BME280;61691;53.072;6.582;2024-03-02T12:29:41;100136.09;;;11.51;56.28
73457;BME280;61691;53.072;6.582;2024-03-02T12:32:08;100223.41;;;12.14;56.48
73457;BME280;61691;53.072;6.582;2024-03-02T12:34:35;100201.13;;;12.07;56.27
73457;BME280;61691;53.072;6.582;2024-03-02T12:37:02;100204.13;;;12.12;54.93
73457;BME280;61691;53.072;6.582;2024-03-02T12:39:30;100227.66;;;12.32;55.79
73457;BME280;61691;53.072;6.582;2024-03-02T12:42:02;100227.44;;;12.26;54.92
73457;BME280;61691;53.072;6.582;2024-03-02T12:44:29;100161.22;;;11.90;55.63
73457;BME280;61691;53.072;6.582;2024-03-02T12:46:56;100202.34;;;12.20;55.79
73457;BME280;61691;53.072;6.582;2024-03-02T12:49:26;100228.66;;;12.39;55.39
73457;BME280;61691;53.072;6.582;2024-03-02T12:51:55;100230.13;;;12.34;55.21
73457;BME280;61691;53.072;6.582;2024-03-02T12:54:22;100227.84;;;12.39;55.53
73457;BME280;61691;53.072;6.582;2024-03-02T12:56:49;100220.50;;;12.41;55.31
73457;BME280;61691;53.072;6.582;2024-03-02T12:59:21;100221.22;;;12.51;55.29
73457;BME280;61691;53.072;6.582;2024-03-02T13:01:54;100212.25;;;12.52;54.15
73457;BME280;61691;53.072;6.582;2024-03-02T13:04:28;100147.72;;;12.26;54.57
73457;BME280;61691;53.072;6.582;2024-03-02T13:06:55;100218.94;;;12.72;54.04
73457;BME280;61691;53.072;6.582;2024-03-02T13:09:25;100168.34;;;12.48;54.19
73457;BME280;61691;53.072;6.582;2024-03-02T13:11:52;100215.16;;;12.83;54.00
73457;BME280;61691;53.072;6.582;2024-03-02T13:14:21;100202.31;;;12.78;53.80
73457;BME280;61691;53.072;6.582;2024-03-02T13:16:49;100180.03;;;12.55;54.09
73457;BME280;61691;53.072;6.582;2024-03-02T13:19:18;100193.81;;;12.59;53.66